DLH756 EDDF-VABB
Flight info
| Callsign | DLH756 |
|---|---|
| Flight time | N/A |
| Altitude | 31000 |
| Route | CINDY8S CINDY Z74 HAREM DCT ASLEP DCT TAKUT DCT DINKU L603 BESNI/N0470F350 L605 MIQ/N0463F370 DCT ALUTU DCT BIBAG L605 ESEGA DCT SUNIS DCT INVED DCT LUGEB DCT UDROS UN743 GAKSU UT310 SIN UN644 KARDE/N0477F390 UN644 ROLIN DCT LAGAS M747 SUBUT T923 ERLEV M11 RODAR A909 TUNEK B143 KRS A240 INRAK B449 RANAH L750 BIROS/N0469F410 L750 ZB G202 HILAL/N0477F390 G202 RK P628 VIKIT/N0471F410 Z8 AAE/N0475F400 R458 BVR/N0470F410 R458 BOFIN/N0474F400 DCT POKON DCT MB379 DCT EMROS |
| Aircraft | A343/H-SDE2E3FGHIJ4J5M1RWXY/LB1D1 |
Departure
| Time | N/A |
|---|---|
| Airport | Frankfurt Main Airport (EDDF) |
Arrival
| Time | 2026-05-04 21:45 |
|---|---|
| Airport | Chhatrapati Shivaji Maharaj International Airport (VABB) |
| Time | Latitude | Longitude | Altitude | Speed | Heading |
|---|---|---|---|---|---|
| 2026-05-04 19:03 | 36.26058 | 62.07945 | 36949 ft | 528 kts | 128° |
| 2026-05-04 19:03 | 36.23873 | 62.11612 | 36954 ft | 528 kts | 128° |
| 2026-05-04 19:03 | 36.19537 | 62.18880 | 36953 ft | 528 kts | 128° |
| 2026-05-04 19:04 | 36.15157 | 62.26204 | 36985 ft | 530 kts | 128° |
| 2026-05-04 19:04 | 36.12961 | 62.29871 | 37105 ft | 531 kts | 128° |
| 2026-05-04 19:04 | 36.10759 | 62.33545 | 37272 ft | 531 kts | 128° |
| 2026-05-04 19:05 | 36.08559 | 62.37212 | 37449 ft | 531 kts | 129° |
| 2026-05-04 19:05 | 36.06354 | 62.40883 | 37626 ft | 531 kts | 129° |
| 2026-05-04 19:05 | 36.04147 | 62.44554 | 37784 ft | 531 kts | 129° |
| 2026-05-04 19:05 | 36.01943 | 62.48213 | 37922 ft | 531 kts | 129° |
| 2026-05-04 19:06 | 35.97520 | 62.55548 | 38215 ft | 532 kts | 129° |
| 2026-05-04 19:06 | 35.95307 | 62.59212 | 38449 ft | 531 kts | 129° |
| 2026-05-04 19:06 | 35.93099 | 62.62864 | 38593 ft | 531 kts | 129° |
| 2026-05-04 19:07 | 35.90913 | 62.66476 | 38712 ft | 531 kts | 129° |
| 2026-05-04 19:07 | 35.88700 | 62.70129 | 38830 ft | 531 kts | 129° |
| 2026-05-04 19:07 | 35.84273 | 62.77424 | 38964 ft | 533 kts | 129° |
| 2026-05-04 19:08 | 35.79834 | 62.84723 | 38986 ft | 531 kts | 129° |
| 2026-05-04 19:08 | 35.75405 | 62.91988 | 38966 ft | 530 kts | 129° |
| 2026-05-04 19:09 | 35.70976 | 62.99241 | 38979 ft | 530 kts | 129° |
| 2026-05-04 19:09 | 35.66541 | 63.06488 | 38984 ft | 530 kts | 129° |
| 2026-05-04 19:10 | 35.62104 | 63.13723 | 38997 ft | 529 kts | 129° |
| 2026-05-04 19:10 | 35.57674 | 63.20933 | 38986 ft | 528 kts | 129° |
| 2026-05-04 19:11 | 35.53212 | 63.28101 | 38991 ft | 527 kts | 130° |
| 2026-05-04 19:11 | 35.48737 | 63.35208 | 38989 ft | 530 kts | 130° |
| 2026-05-04 19:12 | 35.41966 | 63.45969 | 39000 ft | 531 kts | 130° |
| 2026-05-04 19:13 | 35.37459 | 63.53126 | 39003 ft | 529 kts | 130° |
| 2026-05-04 19:13 | 35.32965 | 63.60248 | 39032 ft | 533 kts | 130° |
| 2026-05-04 19:14 | 35.28426 | 63.67436 | 39038 ft | 534 kts | 130° |
| 2026-05-04 19:14 | 35.23897 | 63.74627 | 39071 ft | 534 kts | 130° |
| 2026-05-04 19:15 | 35.19360 | 63.81818 | 39054 ft | 533 kts | 130° |
| 2026-05-04 19:15 | 35.14810 | 63.89015 | 39072 ft | 535 kts | 130° |
| 2026-05-04 19:16 | 35.10253 | 63.96216 | 39076 ft | 535 kts | 130° |
| 2026-05-04 19:16 | 35.05725 | 64.03348 | 39077 ft | 535 kts | 130° |
| 2026-05-04 19:17 | 35.01152 | 64.10523 | 39073 ft | 534 kts | 130° |
| 2026-05-04 19:17 | 34.96591 | 64.17682 | 39085 ft | 535 kts | 130° |
| 2026-05-04 19:18 | 34.92023 | 64.24837 | 39093 ft | 535 kts | 130° |
| 2026-05-04 19:18 | 34.87441 | 64.31992 | 39080 ft | 535 kts | 130° |
| 2026-05-04 19:19 | 34.82872 | 64.39117 | 39109 ft | 536 kts | 130° |
| 2026-05-04 19:19 | 34.78277 | 64.46254 | 39113 ft | 536 kts | 130° |
| 2026-05-04 19:20 | 34.73668 | 64.53412 | 39117 ft | 536 kts | 130° |
| 2026-05-04 19:20 | 34.69098 | 64.60499 | 39103 ft | 536 kts | 130° |
| 2026-05-04 19:21 | 34.64481 | 64.67640 | 39118 ft | 538 kts | 130° |
| 2026-05-04 19:21 | 34.59854 | 64.74781 | 39122 ft | 538 kts | 130° |
| 2026-05-04 19:22 | 34.55212 | 64.81930 | 39120 ft | 539 kts | 130° |
| 2026-05-04 19:22 | 34.50560 | 64.89079 | 39112 ft | 539 kts | 130° |
| 2026-05-04 19:23 | 34.45928 | 64.96187 | 39112 ft | 542 kts | 131° |
| 2026-05-04 19:23 | 34.41241 | 65.03338 | 39112 ft | 540 kts | 130° |
| 2026-05-04 19:24 | 34.36573 | 65.10449 | 39111 ft | 538 kts | 130° |
| 2026-05-04 19:24 | 34.31905 | 65.17544 | 39113 ft | 539 kts | 130° |
| 2026-05-04 19:25 | 34.27246 | 65.24622 | 39113 ft | 541 kts | 131° |
| 2026-05-04 19:25 | 34.22545 | 65.31741 | 39111 ft | 541 kts | 130° |
| 2026-05-04 19:26 | 34.17852 | 65.38837 | 39102 ft | 540 kts | 130° |
| 2026-05-04 19:26 | 34.13149 | 65.45929 | 39102 ft | 542 kts | 130° |
| 2026-05-04 19:27 | 34.08441 | 65.53016 | 39092 ft | 545 kts | 130° |
| 2026-05-04 19:27 | 34.03710 | 65.60154 | 39072 ft | 545 kts | 130° |
| 2026-05-04 19:28 | 33.98974 | 65.67293 | 39075 ft | 543 kts | 130° |
| 2026-05-04 19:28 | 33.94250 | 65.74387 | 39069 ft | 543 kts | 131° |
| 2026-05-04 19:29 | 33.89520 | 65.81462 | 39054 ft | 542 kts | 130° |
| 2026-05-04 19:29 | 33.84820 | 65.88483 | 39051 ft | 542 kts | 131° |
| 2026-05-04 19:30 | 33.80080 | 65.95552 | 39029 ft | 542 kts | 130° |
| 2026-05-04 19:30 | 33.75345 | 66.02604 | 39029 ft | 542 kts | 130° |
| 2026-05-04 19:31 | 33.70609 | 66.09660 | 39005 ft | 541 kts | 130° |
| 2026-05-04 19:31 | 33.65865 | 66.16691 | 39015 ft | 541 kts | 130° |
| 2026-05-04 19:32 | 33.61153 | 66.23667 | 39004 ft | 541 kts | 130° |
| 2026-05-04 19:32 | 33.56399 | 66.30691 | 39001 ft | 542 kts | 130° |
| 2026-05-04 19:33 | 33.51656 | 66.37693 | 39006 ft | 540 kts | 130° |
| 2026-05-04 19:33 | 33.46909 | 66.44680 | 38986 ft | 540 kts | 130° |
| 2026-05-04 19:34 | 33.42162 | 66.51653 | 38989 ft | 540 kts | 131° |
| 2026-05-04 19:34 | 33.37372 | 66.58644 | 39026 ft | 545 kts | 130° |
| 2026-05-04 19:35 | 33.32561 | 66.65652 | 39028 ft | 543 kts | 131° |
| 2026-05-04 19:35 | 33.27763 | 66.72615 | 39013 ft | 542 kts | 130° |
| 2026-05-04 19:36 | 33.22988 | 66.79538 | 39033 ft | 544 kts | 131° |
| 2026-05-04 19:36 | 33.18165 | 66.86534 | 39038 ft | 546 kts | 131° |
| 2026-05-04 19:37 | 33.13324 | 66.93538 | 39036 ft | 546 kts | 131° |
| 2026-05-04 19:37 | 33.08491 | 67.00518 | 39028 ft | 545 kts | 131° |
| 2026-05-04 19:38 | 33.03656 | 67.07482 | 39019 ft | 545 kts | 130° |
| 2026-05-04 19:38 | 32.98837 | 67.14424 | 39026 ft | 548 kts | 131° |
| 2026-05-04 19:39 | 32.93973 | 67.21409 | 38993 ft | 547 kts | 131° |
| 2026-05-04 19:39 | 32.89109 | 67.28365 | 38973 ft | 546 kts | 131° |
| 2026-05-04 19:40 | 32.84260 | 67.35298 | 38953 ft | 544 kts | 131° |
| 2026-05-04 19:40 | 32.79410 | 67.42219 | 38944 ft | 545 kts | 131° |
| 2026-05-04 19:41 | 32.74517 | 67.49109 | 38943 ft | 545 kts | 133° |
| 2026-05-04 19:41 | 32.69513 | 67.55803 | 38941 ft | 544 kts | 134° |
| 2026-05-04 19:42 | 32.64484 | 67.62468 | 38911 ft | 540 kts | 133° |
| 2026-05-04 19:42 | 32.59485 | 67.69130 | 38923 ft | 541 kts | 133° |
| 2026-05-04 19:43 | 32.54486 | 67.75807 | 38919 ft | 541 kts | 133° |
| 2026-05-04 19:43 | 32.49490 | 67.82483 | 38926 ft | 541 kts | 133° |
| 2026-05-04 19:44 | 32.44647 | 67.89325 | 38915 ft | 542 kts | 130° |
| 2026-05-04 19:44 | 32.39902 | 67.96252 | 38933 ft | 546 kts | 130° |
| 2026-05-04 19:45 | 32.35088 | 68.03228 | 38933 ft | 547 kts | 130° |
| 2026-05-04 19:45 | 32.30250 | 68.10168 | 38941 ft | 547 kts | 131° |
| 2026-05-04 19:46 | 32.25398 | 68.17092 | 38931 ft | 547 kts | 131° |
| 2026-05-04 19:46 | 32.20562 | 68.23981 | 38946 ft | 548 kts | 131° |
| 2026-05-04 19:47 | 32.15692 | 68.30906 | 38952 ft | 547 kts | 131° |
| 2026-05-04 19:47 | 32.10823 | 68.37818 | 38952 ft | 547 kts | 131° |
| 2026-05-04 19:48 | 32.05956 | 68.44715 | 38950 ft | 547 kts | 131° |
| 2026-05-04 19:48 | 32.01085 | 68.51606 | 38949 ft | 547 kts | 131° |
| 2026-05-04 19:49 | 31.96241 | 68.58447 | 38952 ft | 545 kts | 131° |
| 2026-05-04 19:49 | 31.91396 | 68.65277 | 38960 ft | 543 kts | 131° |
| 2026-05-04 19:50 | 31.86552 | 68.72095 | 38955 ft | 543 kts | 131° |
| 2026-05-04 19:50 | 31.81706 | 68.78902 | 38957 ft | 544 kts | 131° |
| 2026-05-04 19:51 | 31.76835 | 68.85729 | 38948 ft | 545 kts | 131° |
| 2026-05-04 19:51 | 31.71954 | 68.92558 | 38962 ft | 542 kts | 132° |
| 2026-05-04 19:52 | 31.67935 | 68.98189 | 38952 ft | 541 kts | 131° |
| 2026-05-04 19:52 | 31.63146 | 69.05002 | 38936 ft | 542 kts | 129° |
| 2026-05-04 19:53 | 31.58489 | 69.12001 | 39112 ft | 544 kts | 129° |
| 2026-05-04 19:53 | 31.53847 | 69.18995 | 39276 ft | 547 kts | 129° |
| 2026-05-04 19:53 | 31.51503 | 69.22499 | 39540 ft | 544 kts | 129° |
| 2026-05-04 19:54 | 31.49173 | 69.25966 | 39778 ft | 541 kts | 130° |
| 2026-05-04 19:54 | 31.46834 | 69.29429 | 39902 ft | 540 kts | 130° |
| 2026-05-04 19:54 | 31.44499 | 69.32873 | 40002 ft | 541 kts | 130° |
| 2026-05-04 19:55 | 31.39786 | 69.39762 | 40082 ft | 543 kts | 133° |
| 2026-05-04 19:55 | 31.37108 | 69.42849 | 40170 ft | 539 kts | 144° |
| 2026-05-04 19:55 | 31.34048 | 69.45325 | 40273 ft | 531 kts | 156° |
| 2026-05-04 19:55 | 31.30702 | 69.47050 | 40379 ft | 521 kts | 169° |
| 2026-05-04 19:56 | 31.27226 | 69.48181 | 40500 ft | 517 kts | 173° |
| 2026-05-04 19:56 | 31.23722 | 69.49127 | 40620 ft | 515 kts | 174° |
| 2026-05-04 19:56 | 31.20218 | 69.49984 | 40709 ft | 513 kts | 175° |
| 2026-05-04 19:57 | 31.13237 | 69.51626 | 40800 ft | 516 kts | 175° |
| 2026-05-04 19:57 | 31.09724 | 69.52465 | 40902 ft | 515 kts | 175° |
| 2026-05-04 19:57 | 31.06209 | 69.53318 | 40959 ft | 516 kts | 175° |
| 2026-05-04 19:58 | 30.99200 | 69.55051 | 40954 ft | 512 kts | 174° |
| 2026-05-04 19:58 | 30.92209 | 69.56786 | 40949 ft | 514 kts | 175° |
| 2026-05-04 19:59 | 30.85201 | 69.58522 | 40946 ft | 515 kts | 175° |
| 2026-05-04 19:59 | 30.78190 | 69.60258 | 40938 ft | 515 kts | 175° |
| 2026-05-04 20:00 | 30.71226 | 69.61991 | 40935 ft | 515 kts | 175° |
| 2026-05-04 20:00 | 30.64204 | 69.63719 | 40925 ft | 516 kts | 175° |
| 2026-05-04 20:01 | 30.57165 | 69.65444 | 40925 ft | 517 kts | 175° |
| 2026-05-04 20:01 | 30.50119 | 69.67173 | 40920 ft | 517 kts | 175° |
| 2026-05-04 20:02 | 30.43080 | 69.68901 | 40898 ft | 517 kts | 175° |
| 2026-05-04 20:02 | 30.36033 | 69.70629 | 40917 ft | 517 kts | 175° |
| 2026-05-04 20:03 | 30.28992 | 69.72352 | 40909 ft | 517 kts | 175° |
| 2026-05-04 20:03 | 30.21956 | 69.74106 | 40910 ft | 519 kts | 174° |
| 2026-05-04 20:04 | 30.14981 | 69.76138 | 40900 ft | 521 kts | 172° |
| 2026-05-04 20:04 | 30.07953 | 69.78260 | 40898 ft | 522 kts | 173° |
| 2026-05-04 20:05 | 30.00923 | 69.80342 | 40889 ft | 522 kts | 173° |
| 2026-05-04 20:05 | 29.93883 | 69.82394 | 40887 ft | 521 kts | 173° |
| 2026-05-04 20:06 | 29.86888 | 69.84420 | 40865 ft | 521 kts | 173° |
| 2026-05-04 20:06 | 29.79851 | 69.86455 | 40882 ft | 522 kts | 173° |
| 2026-05-04 20:07 | 29.72821 | 69.88487 | 40852 ft | 521 kts | 173° |
| 2026-05-04 20:07 | 29.65787 | 69.90522 | 40844 ft | 521 kts | 173° |
| 2026-05-04 20:08 | 29.58736 | 69.92558 | 40824 ft | 521 kts | 173° |
| 2026-05-04 20:08 | 29.51707 | 69.94579 | 40809 ft | 520 kts | 173° |
| 2026-05-04 20:09 | 29.44681 | 69.96599 | 40812 ft | 520 kts | 173° |
| 2026-05-04 20:09 | 29.37711 | 69.98599 | 40790 ft | 519 kts | 173° |
| 2026-05-04 20:10 | 29.30710 | 70.00609 | 40803 ft | 517 kts | 173° |
| 2026-05-04 20:10 | 29.23729 | 70.02609 | 40792 ft | 517 kts | 173° |
| 2026-05-04 20:11 | 29.16745 | 70.04605 | 40782 ft | 517 kts | 173° |
| 2026-05-04 20:11 | 29.09759 | 70.06602 | 40773 ft | 517 kts | 173° |
| 2026-05-04 20:12 | 29.02822 | 70.08579 | 40766 ft | 516 kts | 173° |
| 2026-05-04 20:12 | 28.95849 | 70.10561 | 40757 ft | 516 kts | 173° |
| 2026-05-04 20:13 | 28.88874 | 70.12545 | 40760 ft | 516 kts | 173° |
| 2026-05-04 20:13 | 28.81895 | 70.14526 | 40752 ft | 517 kts | 173° |
| 2026-05-04 20:14 | 28.74910 | 70.16508 | 40745 ft | 517 kts | 173° |
| 2026-05-04 20:14 | 28.67921 | 70.18487 | 40745 ft | 517 kts | 173° |
| 2026-05-04 20:15 | 28.60981 | 70.20448 | 40723 ft | 516 kts | 173° |
| 2026-05-04 20:15 | 28.54009 | 70.22420 | 40738 ft | 514 kts | 173° |
| 2026-05-04 20:16 | 28.47065 | 70.24380 | 40737 ft | 514 kts | 173° |
| 2026-05-04 20:16 | 28.40312 | 70.27264 | 40729 ft | 529 kts | 154° |
| 2026-05-04 20:16 | 28.37285 | 70.29698 | 40732 ft | 536 kts | 142° |
| 2026-05-04 20:17 | 28.34724 | 70.32787 | 40707 ft | 541 kts | 129° |
| 2026-05-04 20:17 | 28.30972 | 70.40229 | 40722 ft | 544 kts | 117° |
| 2026-05-04 20:18 | 28.27729 | 70.47968 | 40727 ft | 546 kts | 116° |
| 2026-05-04 20:18 | 28.24492 | 70.55777 | 40718 ft | 546 kts | 116° |
| 2026-05-04 20:19 | 28.21206 | 70.63548 | 40712 ft | 546 kts | 117° |
| 2026-05-04 20:19 | 28.17910 | 70.71239 | 40722 ft | 545 kts | 117° |
| 2026-05-04 20:20 | 28.14587 | 70.78969 | 40690 ft | 545 kts | 117° |
| 2026-05-04 20:20 | 28.11262 | 70.86688 | 40711 ft | 544 kts | 117° |
| 2026-05-04 20:21 | 28.07937 | 70.94391 | 40712 ft | 544 kts | 117° |
| 2026-05-04 20:21 | 28.02939 | 71.05958 | 40704 ft | 545 kts | 117° |
| 2026-05-04 20:22 | 27.99603 | 71.13665 | 40705 ft | 545 kts | 117° |
| 2026-05-04 20:22 | 27.96280 | 71.21322 | 40700 ft | 545 kts | 117° |
| 2026-05-04 20:23 | 27.92929 | 71.29026 | 40690 ft | 544 kts | 117° |
| 2026-05-04 20:23 | 27.89583 | 71.36708 | 40704 ft | 544 kts | 117° |
| 2026-05-04 20:24 | 27.86248 | 71.44342 | 40706 ft | 544 kts | 118° |
| 2026-05-04 20:24 | 27.82735 | 71.51922 | 40706 ft | 544 kts | 120° |
| 2026-05-04 20:25 | 27.79155 | 71.59443 | 40710 ft | 544 kts | 120° |
| 2026-05-04 20:25 | 27.75579 | 71.66987 | 40707 ft | 544 kts | 120° |
| 2026-05-04 20:26 | 27.72020 | 71.74541 | 40679 ft | 544 kts | 119° |
| 2026-05-04 20:26 | 27.68279 | 71.81948 | 40714 ft | 541 kts | 129° |
| 2026-05-04 20:27 | 27.65844 | 71.85140 | 40722 ft | 534 kts | 141° |
| 2026-05-04 20:27 | 27.63009 | 71.87699 | 40720 ft | 525 kts | 153° |
| 2026-05-04 20:27 | 27.59810 | 71.89585 | 40719 ft | 514 kts | 165° |
| 2026-05-04 20:27 | 27.56410 | 71.90719 | 40729 ft | 503 kts | 177° |
| 2026-05-04 20:28 | 27.49520 | 71.91797 | 40728 ft | 499 kts | 182° |
| 2026-05-04 20:28 | 27.42606 | 71.92485 | 40725 ft | 498 kts | 182° |
| 2026-05-04 20:29 | 27.35689 | 71.93189 | 40731 ft | 499 kts | 182° |
| 2026-05-04 20:29 | 27.28810 | 71.93956 | 40729 ft | 500 kts | 181° |
| 2026-05-04 20:30 | 27.21891 | 71.94756 | 40735 ft | 500 kts | 181° |
| 2026-05-04 20:30 | 27.14970 | 71.95557 | 40732 ft | 499 kts | 181° |
| 2026-05-04 20:31 | 27.08053 | 71.96354 | 40735 ft | 499 kts | 182° |
| 2026-05-04 20:31 | 27.01114 | 71.97151 | 40736 ft | 500 kts | 181° |
| 2026-05-04 20:32 | 26.94245 | 71.97939 | 40741 ft | 499 kts | 182° |
| 2026-05-04 20:32 | 26.87318 | 71.98731 | 40725 ft | 499 kts | 181° |
| 2026-05-04 20:33 | 26.80403 | 71.99523 | 40743 ft | 498 kts | 181° |
| 2026-05-04 20:33 | 26.73503 | 72.00310 | 40736 ft | 498 kts | 181° |
| 2026-05-04 20:34 | 26.66647 | 72.01092 | 40740 ft | 498 kts | 181° |
| 2026-05-04 20:34 | 26.59743 | 72.01877 | 40713 ft | 498 kts | 181° |
| 2026-05-04 20:35 | 26.52844 | 72.02661 | 40735 ft | 498 kts | 181° |
| 2026-05-04 20:35 | 26.45930 | 72.03449 | 40735 ft | 499 kts | 181° |
| 2026-05-04 20:36 | 26.39060 | 72.04229 | 40732 ft | 499 kts | 181° |
| 2026-05-04 20:36 | 26.32154 | 72.05010 | 40733 ft | 499 kts | 181° |
| 2026-05-04 20:37 | 26.25245 | 72.05791 | 40733 ft | 498 kts | 181° |
| 2026-05-04 20:37 | 26.18354 | 72.06573 | 40731 ft | 498 kts | 181° |
| 2026-05-04 20:38 | 26.11458 | 72.07354 | 40727 ft | 498 kts | 181° |
| 2026-05-04 20:38 | 26.04605 | 72.08127 | 40727 ft | 498 kts | 181° |
| 2026-05-04 20:39 | 25.97708 | 72.08903 | 40725 ft | 497 kts | 181° |
| 2026-05-04 20:39 | 25.90830 | 72.09675 | 40723 ft | 496 kts | 181° |
| 2026-05-04 20:40 | 25.83943 | 72.10448 | 40716 ft | 496 kts | 181° |
| 2026-05-04 20:40 | 25.77116 | 72.11218 | 40717 ft | 496 kts | 181° |
| 2026-05-04 20:41 | 25.70242 | 72.11990 | 40714 ft | 497 kts | 181° |
| 2026-05-04 20:41 | 25.64516 | 72.12633 | 40717 ft | 497 kts | 181° |
| 2026-05-04 20:42 | 25.57625 | 72.13421 | 40716 ft | 497 kts | 181° |
| 2026-05-04 20:42 | 25.50746 | 72.14212 | 40708 ft | 497 kts | 181° |
| 2026-05-04 20:43 | 25.43863 | 72.15001 | 40684 ft | 497 kts | 180° |
| 2026-05-04 20:43 | 25.36994 | 72.15786 | 40708 ft | 495 kts | 180° |
| 2026-05-04 20:44 | 25.30137 | 72.16568 | 40710 ft | 495 kts | 180° |
| 2026-05-04 20:44 | 25.23285 | 72.17347 | 40707 ft | 495 kts | 180° |
| 2026-05-04 20:45 | 25.16435 | 72.18126 | 40710 ft | 495 kts | 180° |
| 2026-05-04 20:45 | 25.09637 | 72.18900 | 40706 ft | 493 kts | 180° |
| 2026-05-04 20:46 | 25.02816 | 72.19675 | 40713 ft | 493 kts | 180° |
| 2026-05-04 20:46 | 24.95998 | 72.20881 | 40721 ft | 497 kts | 175° |
| 2026-05-04 20:47 | 24.89202 | 72.22361 | 40714 ft | 498 kts | 174° |
| 2026-05-04 20:47 | 24.82456 | 72.23874 | 40720 ft | 498 kts | 174° |
| 2026-05-04 20:48 | 24.75665 | 72.25395 | 40730 ft | 498 kts | 174° |
| 2026-05-04 20:48 | 24.68873 | 72.26916 | 40736 ft | 499 kts | 175° |
| 2026-05-04 20:49 | 24.62059 | 72.28435 | 40738 ft | 500 kts | 175° |
| 2026-05-04 20:49 | 24.55235 | 72.29956 | 40726 ft | 500 kts | 175° |
| 2026-05-04 20:50 | 24.48426 | 72.31473 | 40735 ft | 499 kts | 175° |
| 2026-05-04 20:50 | 24.41609 | 72.32989 | 40743 ft | 499 kts | 175° |
| 2026-05-04 20:51 | 24.34804 | 72.34502 | 40732 ft | 499 kts | 175° |
| 2026-05-04 20:51 | 24.28038 | 72.36002 | 40742 ft | 499 kts | 175° |
| 2026-05-04 20:52 | 24.21237 | 72.37510 | 40733 ft | 499 kts | 175° |
| 2026-05-04 20:52 | 24.14427 | 72.39016 | 40743 ft | 499 kts | 175° |
| 2026-05-04 20:53 | 24.07612 | 72.40522 | 40744 ft | 499 kts | 175° |
| 2026-05-04 20:53 | 24.00807 | 72.42029 | 40754 ft | 499 kts | 175° |
| 2026-05-04 20:54 | 23.93998 | 72.43550 | 40741 ft | 498 kts | 174° |
| 2026-05-04 20:54 | 23.87202 | 72.45068 | 40747 ft | 498 kts | 174° |
| 2026-05-04 20:55 | 23.80458 | 72.46573 | 40740 ft | 498 kts | 174° |
| 2026-05-04 20:55 | 23.73672 | 72.48083 | 40744 ft | 498 kts | 174° |
| 2026-05-04 20:56 | 23.66886 | 72.49593 | 40722 ft | 497 kts | 174° |
| 2026-05-04 20:56 | 23.60109 | 72.51098 | 40743 ft | 496 kts | 174° |
| 2026-05-04 20:57 | 23.53356 | 72.52597 | 40741 ft | 495 kts | 174° |
| 2026-05-04 20:57 | 23.46602 | 72.54096 | 40743 ft | 495 kts | 174° |
| 2026-05-04 20:58 | 23.39853 | 72.55588 | 40742 ft | 495 kts | 174° |
| 2026-05-04 20:58 | 23.33144 | 72.57069 | 40738 ft | 493 kts | 174° |
| 2026-05-04 20:59 | 23.26422 | 72.58557 | 40746 ft | 492 kts | 174° |
| 2026-05-04 20:59 | 23.19704 | 72.60041 | 40769 ft | 492 kts | 174° |
| 2026-05-04 21:00 | 23.12987 | 72.61519 | 40777 ft | 493 kts | 174° |
| 2026-05-04 21:00 | 23.06250 | 72.62063 | 40767 ft | 479 kts | 191° |
| 2026-05-04 21:01 | 22.99825 | 72.60579 | 40776 ft | 469 kts | 202° |
| 2026-05-04 21:01 | 22.93589 | 72.58511 | 40770 ft | 469 kts | 203° |
| 2026-05-04 21:02 | 22.87406 | 72.56372 | 40760 ft | 469 kts | 203° |
| 2026-05-04 21:02 | 22.81187 | 72.54251 | 40755 ft | 469 kts | 203° |
| 2026-05-04 21:03 | 22.74952 | 72.52155 | 40756 ft | 469 kts | 202° |
| 2026-05-04 21:03 | 22.68721 | 72.50072 | 40738 ft | 469 kts | 202° |
| 2026-05-04 21:04 | 22.62469 | 72.47983 | 40753 ft | 469 kts | 202° |
| 2026-05-04 21:04 | 22.56259 | 72.45910 | 40739 ft | 469 kts | 202° |
| 2026-05-04 21:05 | 22.50020 | 72.43827 | 40760 ft | 469 kts | 202° |
| 2026-05-04 21:05 | 22.43766 | 72.41742 | 40746 ft | 469 kts | 202° |
| 2026-05-04 21:06 | 22.37520 | 72.39660 | 40758 ft | 470 kts | 202° |
| 2026-05-04 21:06 | 22.31275 | 72.37581 | 40761 ft | 471 kts | 202° |
| 2026-05-04 21:07 | 22.25008 | 72.35499 | 40767 ft | 471 kts | 202° |
| 2026-05-04 21:07 | 22.18744 | 72.33418 | 40766 ft | 471 kts | 202° |
| 2026-05-04 21:08 | 22.12479 | 72.31339 | 40765 ft | 471 kts | 202° |
| 2026-05-04 21:08 | 22.06249 | 72.29274 | 40769 ft | 471 kts | 202° |
| 2026-05-04 21:09 | 21.99981 | 72.27199 | 40772 ft | 471 kts | 202° |
| 2026-05-04 21:09 | 21.93710 | 72.25123 | 40771 ft | 471 kts | 202° |
| 2026-05-04 21:10 | 21.87486 | 72.23065 | 40781 ft | 471 kts | 202° |
| 2026-05-04 21:10 | 21.81202 | 72.20990 | 40784 ft | 471 kts | 202° |
| 2026-05-04 21:11 | 21.74684 | 72.19794 | 40780 ft | 481 kts | 185° |
| 2026-05-04 21:11 | 21.71318 | 72.20046 | 40790 ft | 487 kts | 174° |
| 2026-05-04 21:11 | 21.67980 | 72.20730 | 40783 ft | 489 kts | 172° |
| 2026-05-04 21:12 | 21.61379 | 72.22419 | 40786 ft | 492 kts | 169° |
| 2026-05-04 21:12 | 21.54735 | 72.24227 | 40786 ft | 492 kts | 170° |
| 2026-05-04 21:13 | 21.48080 | 72.26002 | 40782 ft | 492 kts | 170° |
| 2026-05-04 21:13 | 21.41430 | 72.27742 | 40787 ft | 491 kts | 170° |
| 2026-05-04 21:14 | 21.34826 | 72.29459 | 40792 ft | 491 kts | 170° |
| 2026-05-04 21:14 | 21.28287 | 72.31157 | 40792 ft | 491 kts | 170° |
| 2026-05-04 21:15 | 21.21641 | 72.32882 | 40792 ft | 491 kts | 170° |
| 2026-05-04 21:15 | 21.14993 | 72.34608 | 40791 ft | 491 kts | 170° |
| 2026-05-04 21:16 | 21.08343 | 72.36333 | 40791 ft | 491 kts | 170° |
| 2026-05-04 21:16 | 21.01702 | 72.38054 | 40787 ft | 491 kts | 170° |
| 2026-05-04 21:17 | 20.95056 | 72.39775 | 40797 ft | 491 kts | 170° |
| 2026-05-04 21:17 | 20.88409 | 72.41490 | 40799 ft | 491 kts | 170° |
| 2026-05-04 21:18 | 20.81816 | 72.43176 | 40798 ft | 491 kts | 170° |
| 2026-05-04 21:18 | 20.75157 | 72.44778 | 40793 ft | 488 kts | 176° |
| 2026-05-04 21:19 | 20.71797 | 72.44992 | 40804 ft | 481 kts | 187° |
| 2026-05-04 21:19 | 20.68510 | 72.44535 | 40803 ft | 473 kts | 198° |
| 2026-05-04 21:19 | 20.62289 | 72.42354 | 40802 ft | 469 kts | 206° |
| 2026-05-04 21:20 | 20.57276 | 72.40190 | 40803 ft | 469 kts | 209° |
| 2026-05-04 21:20 | 20.51236 | 72.37498 | 40685 ft | 471 kts | 208° |
| 2026-05-04 21:21 | 20.48201 | 72.36189 | 40448 ft | 471 kts | 208° |
| 2026-05-04 21:21 | 20.45151 | 72.34908 | 40210 ft | 471 kts | 207° |
| 2026-05-04 21:21 | 20.42090 | 72.33656 | 39975 ft | 472 kts | 204° |
| 2026-05-04 21:21 | 20.38996 | 72.32478 | 39704 ft | 472 kts | 203° |
| 2026-05-04 21:22 | 20.35898 | 72.31321 | 39212 ft | 471 kts | 204° |
| 2026-05-04 21:22 | 20.32811 | 72.30137 | 38642 ft | 472 kts | 205° |
| 2026-05-04 21:22 | 20.29738 | 72.28898 | 37972 ft | 473 kts | 206° |
| 2026-05-04 21:22 | 20.26662 | 72.27629 | 37279 ft | 474 kts | 206° |
| 2026-05-04 21:23 | 20.23585 | 72.26354 | 36664 ft | 474 kts | 206° |
| 2026-05-04 21:23 | 20.20507 | 72.25083 | 36035 ft | 475 kts | 206° |
| 2026-05-04 21:23 | 20.17427 | 72.23817 | 35400 ft | 476 kts | 206° |
| 2026-05-04 21:23 | 20.14324 | 72.22548 | 34688 ft | 478 kts | 205° |
| 2026-05-04 21:24 | 20.11206 | 72.21279 | 33957 ft | 482 kts | 205° |
| 2026-05-04 21:24 | 20.08096 | 72.20016 | 33163 ft | 485 kts | 205° |
| 2026-05-04 21:24 | 20.04937 | 72.18735 | 32358 ft | 488 kts | 205° |
| 2026-05-04 21:24 | 20.01747 | 72.17444 | 31556 ft | 491 kts | 205° |
| 2026-05-04 21:25 | 19.98540 | 72.16146 | 30722 ft | 494 kts | 205° |
| 2026-05-04 21:25 | 19.95313 | 72.14841 | 29857 ft | 499 kts | 205° |
| 2026-05-04 21:25 | 19.92062 | 72.13534 | 29146 ft | 497 kts | 204° |
| 2026-05-04 21:25 | 19.88777 | 72.12452 | 28490 ft | 495 kts | 197° |
| 2026-05-04 21:26 | 19.85345 | 72.11841 | 27610 ft | 501 kts | 187° |
| 2026-05-04 21:26 | 19.81891 | 72.11861 | 27179 ft | 495 kts | 178° |
| 2026-05-04 21:26 | 19.78522 | 72.12459 | 26354 ft | 499 kts | 167° |
| 2026-05-04 21:26 | 19.75235 | 72.13755 | 25713 ft | 497 kts | 155° |
| 2026-05-04 21:27 | 19.72357 | 72.15688 | 25058 ft | 496 kts | 145° |
| 2026-05-04 21:27 | 19.69671 | 72.17970 | 24460 ft | 492 kts | 139° |
| 2026-05-04 21:27 | 19.67334 | 72.20596 | 23811 ft | 490 kts | 128° |
| 2026-05-04 21:27 | 19.65414 | 72.23564 | 23199 ft | 485 kts | 122° |
| 2026-05-04 21:28 | 19.63722 | 72.26641 | 22551 ft | 480 kts | 119° |
| 2026-05-04 21:28 | 19.62172 | 72.29752 | 21916 ft | 475 kts | 117° |
| 2026-05-04 21:28 | 19.60692 | 72.32869 | 21347 ft | 469 kts | 116° |
| 2026-05-04 21:28 | 19.59256 | 72.35936 | 21029 ft | 458 kts | 116° |
| 2026-05-04 21:29 | 19.57844 | 72.38931 | 20599 ft | 450 kts | 116° |
| 2026-05-04 21:29 | 19.56440 | 72.41874 | 20103 ft | 444 kts | 117° |
| 2026-05-04 21:29 | 19.55042 | 72.44773 | 19591 ft | 439 kts | 117° |
| 2026-05-04 21:29 | 19.53650 | 72.47642 | 19084 ft | 435 kts | 117° |
| 2026-05-04 21:30 | 19.52268 | 72.50482 | 18579 ft | 431 kts | 117° |
| 2026-05-04 21:30 | 19.50898 | 72.53293 | 18071 ft | 427 kts | 117° |
| 2026-05-04 21:30 | 19.49541 | 72.56077 | 17484 ft | 424 kts | 117° |
| 2026-05-04 21:30 | 19.48193 | 72.58844 | 16784 ft | 423 kts | 117° |
| 2026-05-04 21:31 | 19.45943 | 72.63446 | 15682 ft | 421 kts | 117° |
| 2026-05-04 21:31 | 19.44591 | 72.66188 | 15106 ft | 418 kts | 117° |
| 2026-05-04 21:31 | 19.43252 | 72.68905 | 14537 ft | 414 kts | 118° |
| 2026-05-04 21:32 | 19.41927 | 72.71602 | 13996 ft | 411 kts | 117° |
| 2026-05-04 21:32 | 19.40599 | 72.74270 | 13426 ft | 408 kts | 119° |
| 2026-05-04 21:32 | 19.39265 | 72.76912 | 12848 ft | 404 kts | 118° |
| 2026-05-04 21:32 | 19.37982 | 72.79542 | 12314 ft | 399 kts | 117° |
| 2026-05-04 21:33 | 19.36739 | 72.82157 | 11763 ft | 395 kts | 117° |
| 2026-05-04 21:33 | 19.35508 | 72.84744 | 11262 ft | 390 kts | 119° |
| 2026-05-04 21:33 | 19.34219 | 72.87241 | 10760 ft | 383 kts | 120° |
| 2026-05-04 21:33 | 19.32956 | 72.89668 | 10095 ft | 368 kts | 120° |
| 2026-05-04 21:34 | 19.31782 | 72.91955 | 9456 ft | 346 kts | 121° |
| 2026-05-04 21:34 | 19.30678 | 72.94140 | 8795 ft | 328 kts | 120° |
| 2026-05-04 21:34 | 19.29634 | 72.96220 | 8136 ft | 314 kts | 120° |
| 2026-05-04 21:34 | 19.28611 | 72.98224 | 7480 ft | 304 kts | 120° |
| 2026-05-04 21:35 | 19.27614 | 73.00169 | 6830 ft | 297 kts | 121° |
| 2026-05-04 21:35 | 19.26640 | 73.02072 | 6190 ft | 292 kts | 121° |
| 2026-05-04 21:35 | 19.25685 | 73.03946 | 5528 ft | 287 kts | 121° |
| 2026-05-04 21:35 | 19.24745 | 73.05796 | 4853 ft | 283 kts | 121° |
| 2026-05-04 21:36 | 19.23820 | 73.07627 | 4181 ft | 280 kts | 121° |
| 2026-05-04 21:36 | 19.22905 | 73.09458 | 3646 ft | 282 kts | 121° |
| 2026-05-04 21:36 | 19.21989 | 73.11267 | 3380 ft | 276 kts | 124° |
| 2026-05-04 21:36 | 19.20713 | 73.12711 | 3176 ft | 264 kts | 148° |
| 2026-05-04 21:37 | 19.19135 | 73.13614 | 3026 ft | 253 kts | 159° |
| 2026-05-04 21:37 | 19.17586 | 73.14331 | 3001 ft | 239 kts | 160° |
| 2026-05-04 21:37 | 19.16067 | 73.14932 | 3002 ft | 230 kts | 171° |
| 2026-05-04 21:37 | 19.14513 | 73.15140 | 2996 ft | 218 kts | 179° |
| 2026-05-04 21:38 | 19.13042 | 73.15235 | 3025 ft | 206 kts | 180° |
| 2026-05-04 21:38 | 19.11625 | 73.15321 | 3027 ft | 202 kts | 181° |
| 2026-05-04 21:38 | 19.10225 | 73.15409 | 3010 ft | 197 kts | 180° |
| 2026-05-04 21:38 | 19.08967 | 73.15143 | 3013 ft | 181 kts | 217° |
| 2026-05-04 21:39 | 19.08384 | 73.14033 | 3011 ft | 179 kts | 267° |
| 2026-05-04 21:39 | 19.08586 | 73.12720 | 3014 ft | 184 kts | 282° |
| 2026-05-04 21:39 | 19.08856 | 73.11392 | 3000 ft | 186 kts | 281° |
| 2026-05-04 21:39 | 19.09091 | 73.10050 | 2998 ft | 186 kts | 274° |
| 2026-05-04 21:40 | 19.09145 | 73.08692 | 2996 ft | 185 kts | 269° |
| 2026-05-04 21:40 | 19.09147 | 73.07337 | 2995 ft | 184 kts | 269° |
| 2026-05-04 21:40 | 19.09136 | 73.05984 | 2990 ft | 183 kts | 267° |
| 2026-05-04 21:40 | 19.09123 | 73.04635 | 2989 ft | 184 kts | 268° |
| 2026-05-04 21:41 | 19.09109 | 73.03303 | 2840 ft | 183 kts | 268° |
| 2026-05-04 21:41 | 19.09088 | 73.01969 | 2599 ft | 179 kts | 268° |
| 2026-05-04 21:41 | 19.09069 | 73.00663 | 2360 ft | 174 kts | 268° |
| 2026-05-04 21:41 | 19.09052 | 72.99391 | 2131 ft | 172 kts | 268° |
| 2026-05-04 21:42 | 19.09036 | 72.98128 | 1905 ft | 170 kts | 268° |
| 2026-05-04 21:42 | 19.09039 | 72.96886 | 1643 ft | 166 kts | 268° |
| 2026-05-04 21:42 | 19.08998 | 72.95725 | 1469 ft | 151 kts | 266° |
| 2026-05-04 21:42 | 19.08974 | 72.94667 | 1283 ft | 143 kts | 269° |
| 2026-05-04 21:43 | 19.08967 | 72.93630 | 1119 ft | 141 kts | 268° |
| 2026-05-04 21:43 | 19.08952 | 72.92610 | 911 ft | 138 kts | 268° |
| 2026-05-04 21:43 | 19.08943 | 72.91586 | 780 ft | 140 kts | 268° |
| 2026-05-04 21:43 | 19.08931 | 72.90537 | 666 ft | 146 kts | 267° |
| 2026-05-04 21:44 | 19.08908 | 72.89472 | 515 ft | 145 kts | 270° |
| 2026-05-04 21:44 | 19.08894 | 72.88416 | 253 ft | 142 kts | 267° |
| 2026-05-04 21:44 | 19.08878 | 72.87375 | 64 ft | 136 kts | 268° |
| 2026-05-04 21:44 | 19.08862 | 72.86518 | 52 ft | 91 kts | 270° |
| 2026-05-04 21:45 | 19.08862 | 72.86037 | 51 ft | 39 kts | 269° |
| 2026-05-04 21:45 | 19.08861 | 72.85833 | 52 ft | 25 kts | 272° |
| 2026-05-04 21:45 | 19.08880 | 72.85658 | 49 ft | 23 kts | 286° |
| 2026-05-04 21:45 | 19.08944 | 72.85502 | 50 ft | 23 kts | 294° |
| 2026-05-04 21:46 | 19.09006 | 72.85405 | 48 ft | 3 kts | 19° |
| 2026-05-04 21:46 | 19.09024 | 72.85498 | 48 ft | 20 kts | 86° |
| 2026-05-04 21:46 | 19.09028 | 72.85647 | 53 ft | 21 kts | 89° |
| 2026-05-04 21:46 | 19.09030 | 72.85804 | 53 ft | 22 kts | 89° |
| 2026-05-04 21:47 | 19.09032 | 72.85968 | 52 ft | 23 kts | 89° |
| 2026-05-04 21:47 | 19.09034 | 72.86141 | 52 ft | 24 kts | 89° |
| 2026-05-04 21:47 | 19.09036 | 72.86320 | 53 ft | 25 kts | 89° |
| 2026-05-04 21:47 | 19.09039 | 72.86503 | 48 ft | 25 kts | 89° |
| 2026-05-04 21:48 | 19.09042 | 72.86690 | 54 ft | 25 kts | 89° |
| 2026-05-04 21:48 | 19.09111 | 72.86832 | 50 ft | 21 kts | 51° |
| 2026-05-04 21:48 | 19.09133 | 72.86980 | 54 ft | 21 kts | 89° |
| 2026-05-04 21:48 | 19.09161 | 72.87076 | 48 ft | 4 kts | 14° |
| 2026-05-04 21:49 | 19.09227 | 72.87058 | 50 ft | 12 kts | 318° |
| 2026-05-04 21:49 | 19.09274 | 72.87061 | 52 ft | 11 kts | 24° |
| 2026-05-04 21:49 | 19.09318 | 72.87088 | 48 ft | 0 kts | 31° |